sensor_id;sensor_type;location;lat;lon;timestamp;temperature;humidity
30097;DHT22;16915;51.466;3.610;2024-03-06T00:02:00;6.70;99.90
30097;DHT22;16915;51.466;3.610;2024-03-06T00:04:26;6.70;99.90
30097;DHT22;16915;51.466;3.610;2024-03-06T00:06:52;6.70;99.90
30097;DHT22;16915;51.466;3.610;2024-03-06T00:09:19;6.60;99.90
30097;DHT22;16915;51.466;3.610;2024-03-06T00:11:44;6.60;99.90
30097;DHT22;16915;51.466;3.610;2024-03-06T00:14:10;6.60;99.90
30097;DHT22;16915;51.466;3.610;2024-03-06T00:16:38;6.60;99.90
30097;DHT22;16915;51.466;3.610;2024-03-06T00:19:04;6.50;99.90
30097;DHT22;16915;51.466;3.610;2024-03-06T00:21:29;6.50;99.90
30097;DHT22;16915;51.466;3.610;2024-03-06T00:23:55;6.50;99.90
30097;DHT22;16915;51.466;3.610;2024-03-06T00:26:21;6.50;99.90
30097;DHT22;16915;51.466;3.610;2024-03-06T00:28:47;6.50;99.90
30097;DHT22;16915;51.466;3.610;2024-03-06T00:31:12;6.40;99.90
30097;DHT22;16915;51.466;3.610;2024-03-06T00:33:39;6.40;99.90
30097;DHT22;16915;51.466;3.610;2024-03-06T00:36:05;6.40;99.90
30097;DHT22;16915;51.466;3.610;2024-03-06T00:38:31;6.30;99.90
30097;DHT22;16915;51.466;3.610;2024-03-06T00:40:57;6.30;99.90
30097;DHT22;16915;51.466;3.610;2024-03-06T00:43:23;6.30;99.90
30097;DHT22;16915;51.466;3.610;2024-03-06T00:45:49;6.30;99.90
30097;DHT22;16915;51.466;3.610;2024-03-06T00:48:14;6.30;99.90
30097;DHT22;16915;51.466;3.610;2024-03-06T00:50:40;6.20;99.90
30097;DHT22;16915;51.466;3.610;2024-03-06T00:53:06;6.30;99.90
30097;DHT22;16915;51.466;3.610;2024-03-06T00:55:32;6.20;99.90
30097;DHT22;16915;51.466;3.610;2024-03-06T00:57:57;6.20;99.90
30097;DHT22;16915;51.466;3.610;2024-03-06T01:00:23;6.10;99.90
30097;DHT22;16915;51.466;3.610;2024-03-06T01:02:49;6.10;99.90
30097;DHT22;16915;51.466;3.610;2024-03-06T01:05:14;6.00;99.90
30097;DHT22;16915;51.466;3.610;2024-03-06T01:07:40;6.00;99.90
30097;DHT22;16915;51.466;3.610;2024-03-06T01:10:06;6.00;99.90
30097;DHT22;16915;51.466;3.610;2024-03-06T01:12:32;6.00;99.90
30097;DHT22;16915;51.466;3.610;2024-03-06T01:14:58;6.00;99.90
30097;DHT22;16915;51.466;3.610;2024-03-06T01:17:24;6.00;99.90
30097;DHT22;16915;51.466;3.610;2024-03-06T01:19:50;5.90;99.90
30097;DHT22;16915;51.466;3.610;2024-03-06T01:22:15;5.90;99.90
30097;DHT22;16915;51.466;3.610;2024-03-06T01:24:41;5.90;99.90
30097;DHT22;16915;51.466;3.610;2024-03-06T01:27:07;5.80;99.90
30097;DHT22;16915;51.466;3.610;2024-03-06T01:29:32;5.90;99.90
30097;DHT22;16915;51.466;3.610;2024-03-06T01:31:58;5.90;99.90
30097;DHT22;16915;51.466;3.610;2024-03-06T01:34:24;5.90;99.90
30097;DHT22;16915;51.466;3.610;2024-03-06T01:36:50;5.90;99.90
30097;DHT22;16915;51.466;3.610;2024-03-06T01:39:16;5.90;99.90
30097;DHT22;16915;51.466;3.610;2024-03-06T01:41:45;5.90;99.90
30097;DHT22;16915;51.466;3.610;2024-03-06T01:44:12;5.90;99.90
30097;DHT22;16915;51.466;3.610;2024-03-06T01:46:38;5.90;99.90
30097;DHT22;16915;51.466;3.610;2024-03-06T01:49:03;5.80;99.90
30097;DHT22;16915;51.466;3.610;2024-03-06T01:51:30;5.80;99.90
30097;DHT22;16915;51.466;3.610;2024-03-06T01:53:56;5.80;99.90
30097;DHT22;16915;51.466;3.610;2024-03-06T01:56:22;5.80;99.90
30097;DHT22;16915;51.466;3.610;2024-03-06T01:58:48;5.80;99.90
30097;DHT22;16915;51.466;3.610;2024-03-06T02:01:15;5.80;99.90
30097;DHT22;16915;51.466;3.610;2024-03-06T02:03:42;5.80;99.90
30097;DHT22;16915;51.466;3.610;2024-03-06T02:06:10;5.80;99.90
30097;DHT22;16915;51.466;3.610;2024-03-06T02:08:36;5.80;99.90
30097;DHT22;16915;51.466;3.610;2024-03-06T02:11:02;5.80;99.90
30097;DHT22;16915;51.466;3.610;2024-03-06T02:13:28;5.80;99.90
30097;DHT22;16915;51.466;3.610;2024-03-06T02:15:53;5.80;99.90
30097;DHT22;16915;51.466;3.610;2024-03-06T02:18:19;5.70;99.90
30097;DHT22;16915;51.466;3.610;2024-03-06T02:20:45;5.70;99.90
30097;DHT22;16915;51.466;3.610;2024-03-06T02:23:12;5.70;99.90
30097;DHT22;16915;51.466;3.610;2024-03-06T02:25:38;5.70;99.90
30097;DHT22;16915;51.466;3.610;2024-03-06T02:28:04;5.60;99.90
30097;DHT22;16915;51.466;3.610;2024-03-06T02:30:31;5.60;99.90
30097;DHT22;16915;51.466;3.610;2024-03-06T02:33:05;5.50;99.90
30097;DHT22;16915;51.466;3.610;2024-03-06T02:35:34;5.50;99.90
30097;DHT22;16915;51.466;3.610;2024-03-06T02:38:04;5.50;99.90
30097;DHT22;16915;51.466;3.610;2024-03-06T02:40:33;5.50;99.90
30097;DHT22;16915;51.466;3.610;2024-03-06T02:42:58;5.50;99.90
30097;DHT22;16915;51.466;3.610;2024-03-06T02:45:24;5.50;99.90
30097;DHT22;16915;51.466;3.610;2024-03-06T02:47:49;5.50;99.90
30097;DHT22;16915;51.466;3.610;2024-03-06T02:50:15;5.50;99.90
30097;DHT22;16915;51.466;3.610;2024-03-06T02:52:41;5.50;99.90
30097;DHT22;16915;51.466;3.610;2024-03-06T02:55:07;5.50;99.90
30097;DHT22;16915;51.466;3.610;2024-03-06T02:57:33;5.50;99.90
30097;DHT22;16915;51.466;3.610;2024-03-06T02:59:58;5.50;99.90
30097;DHT22;16915;51.466;3.610;2024-03-06T03:02:24;5.50;99.90
30097;DHT22;16915;51.466;3.610;2024-03-06T03:04:51;5.40;99.90
30097;DHT22;16915;51.466;3.610;2024-03-06T03:07:18;5.40;99.90
30097;DHT22;16915;51.466;3.610;2024-03-06T03:09:45;5.30;99.90
30097;DHT22;16915;51.466;3.610;2024-03-06T03:12:10;5.30;99.90
30097;DHT22;16915;51.466;3.610;2024-03-06T03:14:37;5.20;99.90
30097;DHT22;16915;51.466;3.610;2024-03-06T03:17:02;5.10;99.90
30097;DHT22;16915;51.466;3.610;2024-03-06T03:19:29;5.00;99.90
30097;DHT22;16915;51.466;3.610;2024-03-06T03:21:54;4.90;99.90
30097;DHT22;16915;51.466;3.610;2024-03-06T03:24:20;4.90;99.90
30097;DHT22;16915;51.466;3.610;2024-03-06T03:26:47;4.90;99.90
30097;DHT22;16915;51.466;3.610;2024-03-06T03:29:12;4.90;99.90
30097;DHT22;16915;51.466;3.610;2024-03-06T03:31:38;4.90;99.90
30097;DHT22;16915;51.466;3.610;2024-03-06T03:34:05;5.00;99.90
30097;DHT22;16915;51.466;3.610;2024-03-06T03:36:30;5.00;99.90
30097;DHT22;16915;51.466;3.610;2024-03-06T03:38:56;5.00;99.90
30097;DHT22;16915;51.466;3.610;2024-03-06T03:41:22;5.10;99.90
30097;DHT22;16915;51.466;3.610;2024-03-06T03:43:47;5.10;99.90
30097;DHT22;16915;51.466;3.610;2024-03-06T03:46:14;5.10;99.90
30097;DHT22;16915;51.466;3.610;2024-03-06T03:48:40;5.20;99.90
30097;DHT22;16915;51.466;3.610;2024-03-06T03:51:06;5.30;99.90
30097;DHT22;16915;51.466;3.610;2024-03-06T03:53:32;5.40;99.90
30097;DHT22;16915;51.466;3.610;2024-03-06T03:55:59;5.40;99.90
30097;DHT22;16915;51.466;3.610;2024-03-06T03:58:24;5.40;99.90
30097;DHT22;16915;51.466;3.610;2024-03-06T04:00:50;5.50;99.90
30097;DHT22;16915;51.466;3.610;2024-03-06T04:03:21;5.50;99.90
30097;DHT22;16915;51.466;3.610;2024-03-06T04:05:48;5.50;99.90
30097;DHT22;16915;51.466;3.610;2024-03-06T04:08:14;5.50;99.90
30097;DHT22;16915;51.466;3.610;2024-03-06T04:10:39;5.50;99.90
30097;DHT22;16915;51.466;3.610;2024-03-06T04:13:05;5.50;99.90
30097;DHT22;16915;51.466;3.610;2024-03-06T04:15:31;5.50;99.90
30097;DHT22;16915;51.466;3.610;2024-03-06T04:17:57;5.40;99.90
30097;DHT22;16915;51.466;3.610;2024-03-06T04:20:23;5.40;99.90
30097;DHT22;16915;51.466;3.610;2024-03-06T04:22:48;5.40;99.90
30097;DHT22;16915;51.466;3.610;2024-03-06T04:25:16;5.40;99.90
30097;DHT22;16915;51.466;3.610;2024-03-06T04:27:42;5.30;99.90
30097;DHT22;16915;51.466;3.610;2024-03-06T04:30:08;5.30;99.90
30097;DHT22;16915;51.466;3.610;2024-03-06T04:32:34;5.30;99.90
30097;DHT22;16915;51.466;3.610;2024-03-06T04:35:00;5.40;99.90
30097;DHT22;16915;51.466;3.610;2024-03-06T04:37:25;5.40;99.90
30097;DHT22;16915;51.466;3.610;2024-03-06T04:39:52;5.40;99.90
30097;DHT22;16915;51.466;3.610;2024-03-06T04:42:18;5.50;99.90
30097;DHT22;16915;51.466;3.610;2024-03-06T04:44:45;5.50;99.90
30097;DHT22;16915;51.466;3.610;2024-03-06T04:47:11;5.50;99.90
30097;DHT22;16915;51.466;3.610;2024-03-06T04:49:37;5.50;99.90
30097;DHT22;16915;51.466;3.610;2024-03-06T04:52:02;5.60;99.90
30097;DHT22;16915;51.466;3.610;2024-03-06T04:54:29;5.60;99.90
30097;DHT22;16915;51.466;3.610;2024-03-06T04:56:55;5.60;99.90
30097;DHT22;16915;51.466;3.610;2024-03-06T04:59:21;5.60;99.90
30097;DHT22;16915;51.466;3.610;2024-03-06T05:01:46;5.70;99.90
30097;DHT22;16915;51.466;3.610;2024-03-06T05:04:12;5.60;99.90
30097;DHT22;16915;51.466;3.610;2024-03-06T05:06:38;5.50;99.90
30097;DHT22;16915;51.466;3.610;2024-03-06T05:09:03;5.60;99.90
30097;DHT22;16915;51.466;3.610;2024-03-06T05:11:30;5.50;99.90
30097;DHT22;16915;51.466;3.610;2024-03-06T05:13:57;5.50;99.90
30097;DHT22;16915;51.466;3.610;2024-03-06T05:16:23;5.50;99.90
30097;DHT22;16915;51.466;3.610;2024-03-06T05:18:49;5.40;99.90
30097;DHT22;16915;51.466;3.610;2024-03-06T05:21:15;5.30;99.90
30097;DHT22;16915;51.466;3.610;2024-03-06T05:23:41;5.30;99.90
30097;DHT22;16915;51.466;3.610;2024-03-06T05:26:06;5.20;99.90
30097;DHT22;16915;51.466;3.610;2024-03-06T05:28:32;5.20;99.90
30097;DHT22;16915;51.466;3.610;2024-03-06T05:30:58;5.10;99.90
30097;DHT22;16915;51.466;3.610;2024-03-06T05:33:26;5.00;99.90
30097;DHT22;16915;51.466;3.610;2024-03-06T05:35:53;4.90;99.90
30097;DHT22;16915;51.466;3.610;2024-03-06T05:38:19;4.80;99.90
30097;DHT22;16915;51.466;3.610;2024-03-06T05:40:44;4.80;99.90
30097;DHT22;16915;51.466;3.610;2024-03-06T05:43:10;4.70;99.90
30097;DHT22;16915;51.466;3.610;2024-03-06T05:45:36;4.80;99.90
30097;DHT22;16915;51.466;3.610;2024-03-06T05:48:02;4.80;99.90
30097;DHT22;16915;51.466;3.610;2024-03-06T05:50:29;4.80;99.90
30097;DHT22;16915;51.466;3.610;2024-03-06T05:52:57;4.70;99.90
30097;DHT22;16915;51.466;3.610;2024-03-06T05:55:23;4.70;99.90
30097;DHT22;16915;51.466;3.610;2024-03-06T05:57:48;4.60;99.90
30097;DHT22;16915;51.466;3.610;2024-03-06T06:00:15;4.60;99.90
30097;DHT22;16915;51.466;3.610;2024-03-06T06:02:43;4.70;99.90
30097;DHT22;16915;51.466;3.610;2024-03-06T06:05:11;4.60;99.90
30097;DHT22;16915;51.466;3.610;2024-03-06T06:07:36;4.60;99.90
30097;DHT22;16915;51.466;3.610;2024-03-06T06:10:04;4.60;99.90
30097;DHT22;16915;51.466;3.610;2024-03-06T06:12:31;4.60;99.90
30097;DHT22;16915;51.466;3.610;2024-03-06T06:14:57;4.70;99.90
30097;DHT22;16915;51.466;3.610;2024-03-06T06:17:22;4.80;99.90
30097;DHT22;16915;51.466;3.610;2024-03-06T06:19:48;4.90;99.90
30097;DHT22;16915;51.466;3.610;2024-03-06T06:22:13;5.00;99.90
30097;DHT22;16915;51.466;3.610;2024-03-06T06:24:39;4.90;99.90
30097;DHT22;16915;51.466;3.610;2024-03-06T06:27:06;4.90;99.90
30097;DHT22;16915;51.466;3.610;2024-03-06T06:29:31;4.90;99.90
30097;DHT22;16915;51.466;3.610;2024-03-06T06:31:57;4.90;99.90
30097;DHT22;16915;51.466;3.610;2024-03-06T06:34:22;4.90;99.90
30097;DHT22;16915;51.466;3.610;2024-03-06T06:36:48;4.90;99.90
30097;DHT22;16915;51.466;3.610;2024-03-06T06:39:14;4.80;99.90
30097;DHT22;16915;51.466;3.610;2024-03-06T06:41:39;4.70;99.90
30097;DHT22;16915;51.466;3.610;2024-03-06T06:44:05;4.70;99.90
30097;DHT22;16915;51.466;3.610;2024-03-06T06:46:30;4.70;99.90
30097;DHT22;16915;51.466;3.610;2024-03-06T06:48:56;4.60;99.90
30097;DHT22;16915;51.466;3.610;2024-03-06T06:51:22;4.50;99.90
30097;DHT22;16915;51.466;3.610;2024-03-06T06:53:48;4.60;99.90
30097;DHT22;16915;51.466;3.610;2024-03-06T06:56:14;4.60;99.90
30097;DHT22;16915;51.466;3.610;2024-03-06T06:58:39;4.50;99.90
30097;DHT22;16915;51.466;3.610;2024-03-06T07:01:08;4.60;99.90
30097;DHT22;16915;51.466;3.610;2024-03-06T07:03:33;4.50;99.90
30097;DHT22;16915;51.466;3.610;2024-03-06T07:05:59;4.50;99.90
30097;DHT22;16915;51.466;3.610;2024-03-06T07:08:25;4.50;99.90
30097;DHT22;16915;51.466;3.610;2024-03-06T07:10:50;4.50;99.90
30097;DHT22;16915;51.466;3.610;2024-03-06T07:13:18;4.50;99.90
30097;DHT22;16915;51.466;3.610;2024-03-06T07:15:44;4.60;99.90
30097;DHT22;16915;51.466;3.610;2024-03-06T07:18:09;4.70;99.90
30097;DHT22;16915;51.466;3.610;2024-03-06T07:20:35;4.80;99.90
30097;DHT22;16915;51.466;3.610;2024-03-06T07:23:01;4.90;99.90
30097;DHT22;16915;51.466;3.610;2024-03-06T07:25:26;5.00;99.90
30097;DHT22;16915;51.466;3.610;2024-03-06T07:27:52;5.00;99.90
30097;DHT22;16915;51.466;3.610;2024-03-06T07:30:18;5.00;99.90
30097;DHT22;16915;51.466;3.610;2024-03-06T07:32:46;4.90;99.90
30097;DHT22;16915;51.466;3.610;2024-03-06T07:35:11;4.90;99.90
30097;DHT22;16915;51.466;3.610;2024-03-06T07:37:37;4.80;99.90
30097;DHT22;16915;51.466;3.610;2024-03-06T07:40:03;4.80;99.90
30097;DHT22;16915;51.466;3.610;2024-03-06T07:42:30;4.80;99.90
30097;DHT22;16915;51.466;3.610;2024-03-06T07:44:55;4.70;99.90
30097;DHT22;16915;51.466;3.610;2024-03-06T07:47:21;4.70;99.90
30097;DHT22;16915;51.466;3.610;2024-03-06T07:49:46;4.60;99.90
30097;DHT22;16915;51.466;3.610;2024-03-06T07:52:12;4.50;99.90
30097;DHT22;16915;51.466;3.610;2024-03-06T07:54:37;4.50;99.90
30097;DHT22;16915;51.466;3.610;2024-03-06T07:57:04;4.50;99.90
30097;DHT22;16915;51.466;3.610;2024-03-06T07:59:30;4.60;99.90
30097;DHT22;16915;51.466;3.610;2024-03-06T08:01:56;4.60;99.90
30097;DHT22;16915;51.466;3.610;2024-03-06T08:04:22;4.60;99.90
30097;DHT22;16915;51.466;3.610;2024-03-06T08:06:48;4.60;99.90
30097;DHT22;16915;51.466;3.610;2024-03-06T08:09:14;4.60;99.90
30097;DHT22;16915;51.466;3.610;2024-03-06T08:11:42;4.70;99.90
30097;DHT22;16915;51.466;3.610;2024-03-06T08:14:08;4.70;99.90
30097;DHT22;16915;51.466;3.610;2024-03-06T08:16:33;4.70;99.90
30097;DHT22;16915;51.466;3.610;2024-03-06T08:18:59;4.60;99.90
30097;DHT22;16915;51.466;3.610;2024-03-06T08:21:25;4.70;99.90
30097;DHT22;16915;51.466;3.610;2024-03-06T08:23:51;4.80;99.90
30097;DHT22;16915;51.466;3.610;2024-03-06T08:26:18;4.80;99.90
30097;DHT22;16915;51.466;3.610;2024-03-06T08:28:43;4.90;99.90
30097;DHT22;16915;51.466;3.610;2024-03-06T08:31:09;4.90;99.90
30097;DHT22;16915;51.466;3.610;2024-03-06T08:33:34;4.90;99.90
30097;DHT22;16915;51.466;3.610;2024-03-06T08:36:00;5.00;99.90
30097;DHT22;16915;51.466;3.610;2024-03-06T08:38:25;5.10;99.90
30097;DHT22;16915;51.466;3.610;2024-03-06T08:40:51;5.00;99.90
30097;DHT22;16915;51.466;3.610;2024-03-06T08:43:17;5.00;99.90
30097;DHT22;16915;51.466;3.610;2024-03-06T08:45:44;4.90;99.90
30097;DHT22;16915;51.466;3.610;2024-03-06T08:48:10;5.00;99.90
30097;DHT22;16915;51.466;3.610;2024-03-06T08:50:37;5.00;99.90
30097;DHT22;16915;51.466;3.610;2024-03-06T08:53:02;5.00;99.90
30097;DHT22;16915;51.466;3.610;2024-03-06T08:55:28;5.10;99.90
30097;DHT22;16915;51.466;3.610;2024-03-06T08:57:53;5.00;99.90
30097;DHT22;16915;51.466;3.610;2024-03-06T09:00:19;5.00;99.90
30097;DHT22;16915;51.466;3.610;2024-03-06T09:02:45;5.10;99.90
30097;DHT22;16915;51.466;3.610;2024-03-06T09:05:11;5.10;99.90
30097;DHT22;16915;51.466;3.610;2024-03-06T09:07:38;5.20;99.90
30097;DHT22;16915;51.466;3.610;2024-03-06T09:10:06;5.30;99.90
30097;DHT22;16915;51.466;3.610;2024-03-06T09:12:32;5.40;99.90
30097;DHT22;16915;51.466;3.610;2024-03-06T09:14:58;5.20;99.90
30097;DHT22;16915;51.466;3.610;2024-03-06T09:17:25;5.20;99.90
30097;DHT22;16915;51.466;3.610;2024-03-06T09:19:51;5.20;99.90
30097;DHT22;16915;51.466;3.610;2024-03-06T09:22:17;5.30;99.90
30097;DHT22;16915;51.466;3.610;2024-03-06T09:24:43;5.40;99.90
30097;DHT22;16915;51.466;3.610;2024-03-06T09:27:08;5.50;99.90
30097;DHT22;16915;51.466;3.610;2024-03-06T09:29:34;5.80;99.90
30097;DHT22;16915;51.466;3.610;2024-03-06T09:31:59;5.70;99.90
30097;DHT22;16915;51.466;3.610;2024-03-06T09:34:25;5.50;99.90
30097;DHT22;16915;51.466;3.610;2024-03-06T09:36:51;5.50;99.90
30097;DHT22;16915;51.466;3.610;2024-03-06T09:39:18;5.60;99.90
30097;DHT22;16915;51.466;3.610;2024-03-06T09:41:48;5.70;99.90
30097;DHT22;16915;51.466;3.610;2024-03-06T09:44:15;5.50;99.90
30097;DHT22;16915;51.466;3.610;2024-03-06T09:46:46;5.60;99.90
30097;DHT22;16915;51.466;3.610;2024-03-06T09:49:13;5.60;99.90
30097;DHT22;16915;51.466;3.610;2024-03-06T09:51:43;5.80;99.90
30097;DHT22;16915;51.466;3.610;2024-03-06T09:54:11;6.00;99.90
30097;DHT22;16915;51.466;3.610;2024-03-06T09:56:38;6.20;99.90
30097;DHT22;16915;51.466;3.610;2024-03-06T09:59:04;6.10;99.90
30097;DHT22;16915;51.466;3.610;2024-03-06T10:01:31;6.00;99.90
30097;DHT22;16915;51.466;3.610;2024-03-06T10:03:57;6.00;99.90
30097;DHT22;16915;51.466;3.610;2024-03-06T10:06:22;6.10;99.90
30097;DHT22;16915;51.466;3.610;2024-03-06T10:08:48;6.50;99.90
30097;DHT22;16915;51.466;3.610;2024-03-06T10:11:15;6.50;99.90
30097;DHT22;16915;51.466;3.610;2024-03-06T10:13:42;6.50;99.90
30097;DHT22;16915;51.466;3.610;2024-03-06T10:16:08;6.50;99.90
30097;DHT22;16915;51.466;3.610;2024-03-06T10:18:35;6.50;99.90
30097;DHT22;16915;51.466;3.610;2024-03-06T10:21:01;6.50;99.90
30097;DHT22;16915;51.466;3.610;2024-03-06T10:23:27;6.60;99.90
30097;DHT22;16915;51.466;3.610;2024-03-06T10:25:55;6.60;99.90
30097;DHT22;16915;51.466;3.610;2024-03-06T10:28:22;6.50;99.90
30097;DHT22;16915;51.466;3.610;2024-03-06T10:30:49;6.50;99.90
30097;DHT22;16915;51.466;3.610;2024-03-06T10:33:16;6.50;99.90
30097;DHT22;16915;51.466;3.610;2024-03-06T10:35:47;6.60;99.90
30097;DHT22;16915;51.466;3.610;2024-03-06T10:38:16;6.70;99.90
30097;DHT22;16915;51.466;3.610;2024-03-06T10:40:44;6.90;99.90
30097;DHT22;16915;51.466;3.610;2024-03-06T10:43:10;7.00;99.90
30097;DHT22;16915;51.466;3.610;2024-03-06T10:45:54;7.10;99.90
30097;DHT22;16915;51.466;3.610;2024-03-06T10:48:23;7.00;99.90
30097;DHT22;16915;51.466;3.610;2024-03-06T10:50:51;6.90;99.90
30097;DHT22;16915;51.466;3.610;2024-03-06T10:53:17;6.80;99.90
30097;DHT22;16915;51.466;3.610;2024-03-06T10:55:44;6.80;99.90
30097;DHT22;16915;51.466;3.610;2024-03-06T10:58:10;6.90;99.90
30097;DHT22;16915;51.466;3.610;2024-03-06T11:00:49;6.70;99.90
30097;DHT22;16915;51.466;3.610;2024-03-06T11:03:16;6.80;99.90
30097;DHT22;16915;51.466;3.610;2024-03-06T11:05:43;6.80;99.90
30097;DHT22;16915;51.466;3.610;2024-03-06T11:08:12;6.80;99.90
30097;DHT22;16915;51.466;3.610;2024-03-06T11:10:42;6.70;99.90
30097;DHT22;16915;51.466;3.610;2024-03-06T11:13:21;6.70;99.90
30097;DHT22;16915;51.466;3.610;2024-03-06T11:15:48;6.80;99.90
30097;DHT22;16915;51.466;3.610;2024-03-06T11:24:13;7.10;99.90
30097;DHT22;16915;51.466;3.610;2024-03-06T11:26:56;7.30;99.90
30097;DHT22;16915;51.466;3.610;2024-03-06T11:29:28;7.50;99.90
30097;DHT22;16915;51.466;3.610;2024-03-06T11:32:07;7.50;99.90
30097;DHT22;16915;51.466;3.610;2024-03-06T11:34:34;7.70;99.90
30097;DHT22;16915;51.466;3.610;2024-03-06T11:37:03;7.90;99.90
30097;DHT22;16915;51.466;3.610;2024-03-06T11:39:33;7.80;99.90
30097;DHT22;16915;51.466;3.610;2024-03-06T11:42:00;7.80;99.90
30097;DHT22;16915;51.466;3.610;2024-03-06T11:44:27;7.80;99.90
30097;DHT22;16915;51.466;3.610;2024-03-06T11:46:58;7.80;99.90
30097;DHT22;16915;51.466;3.610;2024-03-06T11:49:26;8.00;99.90
30097;DHT22;16915;51.466;3.610;2024-03-06T11:52:00;8.00;99.90
30097;DHT22;16915;51.466;3.610;2024-03-06T11:54:26;8.00;99.90
30097;DHT22;16915;51.466;3.610;2024-03-06T11:56:55;7.80;99.90
30097;DHT22;16915;51.466;3.610;2024-03-06T11:59:31;7.80;99.90
30097;DHT22;16915;51.466;3.610;2024-03-06T12:01:59;7.90;99.90
30097;DHT22;16915;51.466;3.610;2024-03-06T12:04:28;8.20;99.90
30097;DHT22;16915;51.466;3.610;2024-03-06T12:06:58;8.40;99.90
30097;DHT22;16915;51.466;3.610;2024-03-06T12:09:35;8.70;99.90
30097;DHT22;16915;51.466;3.610;2024-03-06T12:12:01;8.80;99.90
30097;DHT22;16915;51.466;3.610;2024-03-06T12:14:29;8.70;99.90
30097;DHT22;16915;51.466;3.610;2024-03-06T12:16:59;8.60;99.90
30097;DHT22;16915;51.466;3.610;2024-03-06T12:19:35;8.50;99.90
30097;DHT22;16915;51.466;3.610;2024-03-06T12:22:04;8.70;99.90
30097;DHT22;16915;51.466;3.610;2024-03-06T12:24:30;8.60;99.90
30097;DHT22;16915;51.466;3.610;2024-03-06T12:27:07;8.50;99.90
30097;DHT22;16915;51.466;3.610;2024-03-06T12:29:34;8.50;99.90
30097;DHT22;16915;51.466;3.610;2024-03-06T12:32:01;8.60;99.90
30097;DHT22;16915;51.466;3.610;2024-03-06T12:34:28;8.70;99.90
30097;DHT22;16915;51.466;3.610;2024-03-06T12:36:53;8.60;99.90
30097;DHT22;16915;51.466;3.610;2024-03-06T12:39:19;8.60;99.90
30097;DHT22;16915;51.466;3.610;2024-03-06T12:41:49;8.80;99.90
30097;DHT22;16915;51.466;3.610;2024-03-06T12:44:15;9.00;99.90
30097;DHT22;16915;51.466;3.610;2024-03-06T12:46:41;9.10;99.90
30097;DHT22;16915;51.466;3.610;2024-03-06T12:49:07;9.40;99.90
30097;DHT22;16915;51.466;3.610;2024-03-06T12:51:32;9.60;99.90
30097;DHT22;16915;51.466;3.610;2024-03-06T12:53:58;9.50;99.90
30097;DHT22;16915;51.466;3.610;2024-03-06T12:56:24;9.30;99.90
30097;DHT22;16915;51.466;3.610;2024-03-06T12:58:51;9.30;99.90
30097;DHT22;16915;51.466;3.610;2024-03-06T13:01:16;9.20;99.90
30097;DHT22;16915;51.466;3.610;2024-03-06T13:03:42;9.20;99.90
30097;DHT22;16915;51.466;3.610;2024-03-06T13:06:07;9.40;99.90
30097;DHT22;16915;51.466;3.610;2024-03-06T13:08:33;9.40;99.90
30097;DHT22;16915;51.466;3.610;2024-03-06T13:10:58;9.50;99.90
30097;DHT22;16915;51.466;3.610;2024-03-06T13:13:24;9.70;99.90
30097;DHT22;16915;51.466;3.610;2024-03-06T13:15:51;9.70;99.90
30097;DHT22;16915;51.466;3.610;2024-03-06T13:18:17;9.70;99.90
30097;DHT22;16915;51.466;3.610;2024-03-06T13:20:42;9.80;99.90
30097;DHT22;16915;51.466;3.610;2024-03-06T13:23:08;9.90;99.90
30097;DHT22;16915;51.466;3.610;2024-03-06T13:25:34;10.20;99.90
30097;DHT22;16915;51.466;3.610;2024-03-06T13:28:00;11.10;99.90
30097;DHT22;16915;51.466;3.610;2024-03-06T13:30:27;12.80;99.90
30097;DHT22;16915;51.466;3.610;2024-03-06T13:32:52;14.10;99.90
30097;DHT22;16915;51.466;3.610;2024-03-06T13:35:19;15.90;99.90
30097;DHT22;16915;51.466;3.610;2024-03-06T13:37:45;17.20;99.90
30097;DHT22;16915;51.466;3.610;2024-03-06T13:40:11;18.10;99.90
30097;DHT22;16915;51.466;3.610;2024-03-06T13:42:39;18.40;99.90
30097;DHT22;16915;51.466;3.610;2024-03-06T13:45:06;18.80;99.90
30097;DHT22;16915;51.466;3.610;2024-03-06T13:47:40;19.40;99.90
30097;DHT22;16915;51.466;3.610;2024-03-06T13:50:14;19.70;99.90
30097;DHT22;16915;51.466;3.610;2024-03-06T13:52:40;20.10;99.90
30097;DHT22;16915;51.466;3.610;2024-03-06T13:55:06;20.50;99.90
30097;DHT22;16915;51.466;3.610;2024-03-06T13:57:34;20.90;99.90
30097;DHT22;16915;51.466;3.610;2024-03-06T14:00:04;21.20;99.90
30097;DHT22;16915;51.466;3.610;2024-03-06T14:02:37;21.50;99.90
30097;DHT22;16915;51.466;3.610;2024-03-06T14:05:03;21.80;99.90
30097;DHT22;16915;51.466;3.610;2024-03-06T14:07:29;21.80;99.90
30097;DHT22;16915;51.466;3.610;2024-03-06T14:09:54;21.20;99.90
30097;DHT22;16915;51.466;3.610;2024-03-06T14:12:22;19.70;99.90
30097;DHT22;16915;51.466;3.610;2024-03-06T14:14:48;18.10;99.90
30097;DHT22;16915;51.466;3.610;2024-03-06T14:17:13;16.50;99.90
30097;DHT22;16915;51.466;3.610;2024-03-06T14:19:39;15.30;99.90
30097;DHT22;16915;51.466;3.610;2024-03-06T14:22:08;14.20;99.90
30097;DHT22;16915;51.466;3.610;2024-03-06T14:24:34;13.40;99.90
30097;DHT22;16915;51.466;3.610;2024-03-06T14:27:01;12.70;99.90
30097;DHT22;16915;51.466;3.610;2024-03-06T14:29:27;12.10;99.90
30097;DHT22;16915;51.466;3.610;2024-03-06T14:31:53;11.70;99.90
30097;DHT22;16915;51.466;3.610;2024-03-06T14:34:19;11.30;99.90
30097;DHT22;16915;51.466;3.610;2024-03-06T14:36:50;11.10;99.90
30097;DHT22;16915;51.466;3.610;2024-03-06T14:39:15;10.90;99.90
30097;DHT22;16915;51.466;3.610;2024-03-06T14:41:41;10.70;99.90
30097;DHT22;16915;51.466;3.610;2024-03-06T14:44:08;10.60;99.90
30097;DHT22;16915;51.466;3.610;2024-03-06T14:46:34;10.40;99.90
30097;DHT22;16915;51.466;3.610;2024-03-06T14:48:59;10.30;99.90
30097;DHT22;16915;51.466;3.610;2024-03-06T14:51:28;10.30;99.90
30097;DHT22;16915;51.466;3.610;2024-03-06T14:53:53;10.20;99.90
30097;DHT22;16915;51.466;3.610;2024-03-06T14:56:19;10.20;99.90
30097;DHT22;16915;51.466;3.610;2024-03-06T14:58:47;10.20;99.90
30097;DHT22;16915;51.466;3.610;2024-03-06T15:01:12;10.20;99.90
30097;DHT22;16915;51.466;3.610;2024-03-06T15:03:38;10.20;99.90
30097;DHT22;16915;51.466;3.610;2024-03-06T15:06:05;10.30;99.90
30097;DHT22;16915;51.466;3.610;2024-03-06T15:08:33;10.30;99.90
30097;DHT22;16915;51.466;3.610;2024-03-06T15:11:00;10.30;99.90
30097;DHT22;16915;51.466;3.610;2024-03-06T15:13:25;10.40;99.90
30097;DHT22;16915;51.466;3.610;2024-03-06T15:15:51;10.40;99.90
30097;DHT22;16915;51.466;3.610;2024-03-06T15:18:17;10.40;99.90
30097;DHT22;16915;51.466;3.610;2024-03-06T15:20:43;10.40;99.90
30097;DHT22;16915;51.466;3.610;2024-03-06T15:23:09;10.30;99.90
30097;DHT22;16915;51.466;3.610;2024-03-06T15:25:34;10.30;99.90
30097;DHT22;16915;51.466;3.610;2024-03-06T15:28:00;10.20;99.90
30097;DHT22;16915;51.466;3.610;2024-03-06T15:30:25;10.20;99.90
30097;DHT22;16915;51.466;3.610;2024-03-06T15:32:52;10.20;99.90
30097;DHT22;16915;51.466;3.610;2024-03-06T15:35:18;10.10;99.90
30097;DHT22;16915;51.466;3.610;2024-03-06T15:37:43;10.10;99.90
30097;DHT22;16915;51.466;3.610;2024-03-06T15:40:09;10.10;99.90
30097;DHT22;16915;51.466;3.610;2024-03-06T15:42:35;10.10;99.90
30097;DHT22;16915;51.466;3.610;2024-03-06T15:45:02;10.00;99.90
30097;DHT22;16915;51.466;3.610;2024-03-06T15:47:27;10.00;99.90